China Lake Naws (Armitage Field) Airport China Lake US
ICAO: KNID
IATA: NID
Category: Medium
Scheduled Services: No

Elevation: 2283 ft
TransAlt. 18000 ft.

Airport Communications:
JOSHUA APP/DEP:133.65
VFR ADVSY SVC:133.65
ATIS:32.237
GND:36.02
PMSV METRO:34.315
TWR:120.15

KNID Zoom In..

Runways:

(A) RW 03 length 9993 ft width 200 ft
---- / hdg 28

(B) RW 08 length 7702 ft width 150 ft
---- / hdg 76

(C) RW 14 length 9013 ft width 150 ft
---- / hdg 140

(D) RW 21 length 9993 ft width 200 ft
---- / hdg 208

(E) RW 26 length 7702 ft width 150 ft
---- / hdg 256

(F) RW 32 length 9013 ft width 150 ft
---- / hdg 320

Location; KNID
Day. 24 / Time. 01.56 Zulu
* Altimeter: 30.23
* Temperature: 11° c. 51.8°f.
* Wind from: 060° Speed 03 kn.
Dewpoint: -06° c.
Visibility: 10 Statute Miles.
Clouds: Clear (automated report).

KNID 240156Z 06003KT 10SM CLR 11/M06 A3023 RMK AO2 SLP245 T01111061 $


Wind From 060°
Speed 03 kn.

YouTube Music Video
 
jpsmedia.com for Web Design  worldairports.se 2018   terms of use